createdAt,value
2017-06-03T00:02:15.773Z,3.00
2017-06-03T00:04:42.047Z,3.03
2017-06-03T00:07:08.218Z,3.27
2017-06-03T00:09:34.377Z,3.17
2017-06-03T00:12:00.593Z,3.30
2017-06-03T00:14:32.698Z,3.33
2017-06-03T00:16:58.936Z,3.23
2017-06-03T00:19:25.129Z,3.20
2017-06-03T00:21:51.366Z,3.10
2017-06-03T00:24:17.554Z,2.97
2017-06-03T00:26:43.741Z,3.30
2017-06-03T00:40:56.158Z,3.10
2017-06-03T01:01:01.222Z,2.87
2017-06-03T01:03:27.374Z,3.00
2017-06-03T01:18:35.881Z,3.00
2017-06-03T01:21:02.048Z,4.13
2017-06-03T01:23:28.337Z,2.43
2017-06-03T01:25:54.537Z,2.90
2017-06-03T01:40:06.880Z,2.63
2017-06-03T01:42:33.299Z,2.97
2017-06-03T01:59:42.047Z,2.77
2017-06-03T02:02:08.262Z,2.80
2017-06-03T02:04:34.413Z,2.53
2017-06-03T02:07:00.617Z,2.70
2017-06-03T02:09:26.837Z,3.07
2017-06-03T02:11:53.069Z,2.40
2017-06-03T02:20:12.402Z,2.43
2017-06-03T02:22:38.706Z,2.23
2017-06-03T02:25:04.873Z,2.70
2017-06-03T02:27:31.071Z,2.63
2017-06-03T02:39:11.301Z,2.37
2017-06-03T02:41:37.453Z,2.70
2017-06-03T02:58:46.071Z,2.57
2017-06-03T03:01:12.272Z,2.30
2017-06-03T03:03:38.422Z,2.27
2017-06-03T03:06:04.585Z,2.40
2017-06-03T03:08:30.943Z,2.40
2017-06-03T03:10:57.102Z,2.20
2017-06-03T03:13:23.279Z,2.80
2017-06-03T03:18:46.126Z,2.13
2017-06-03T03:21:12.274Z,2.23
2017-06-03T03:39:11.407Z,2.03
2017-06-03T03:41:37.554Z,2.40
2017-06-03T03:58:46.580Z,2.40
2017-06-03T04:01:12.790Z,2.50
2017-06-03T04:03:39.007Z,2.27
2017-06-03T04:06:05.221Z,2.30
2017-06-03T04:08:31.440Z,2.27
2017-06-03T04:10:57.681Z,2.10
2017-06-03T04:13:23.877Z,2.20
2017-06-03T04:18:46.732Z,2.57
2017-06-03T04:21:12.877Z,1.80
2017-06-03T04:23:39.097Z,1.97
2017-06-03T04:26:05.250Z,2.60
2017-06-03T04:28:31.492Z,2.20
2017-06-03T04:39:47.324Z,2.13
2017-06-03T04:42:13.514Z,2.40
2017-06-03T04:50:38.594Z,3.10
2017-06-03T04:53:04.785Z,2.50
2017-06-03T04:55:30.981Z,2.00
2017-06-03T04:57:57.132Z,1.93
2017-06-03T05:00:23.284Z,2.37
2017-06-03T05:02:49.525Z,2.43
2017-06-03T05:05:15.684Z,2.03
2017-06-03T05:07:41.958Z,2.13
2017-06-03T05:10:08.154Z,2.60
2017-06-03T05:12:34.342Z,2.03
2017-06-03T05:20:53.605Z,2.07
2017-06-03T05:23:19.770Z,2.70
2017-06-03T05:25:46.032Z,2.00
2017-06-03T05:28:12.179Z,2.07
2017-06-03T05:36:37.255Z,2.07
2017-06-03T05:39:03.467Z,2.00
2017-06-03T05:41:29.790Z,1.90
2017-06-03T05:43:56.266Z,1.80
2017-06-03T06:01:04.789Z,17.30
2017-06-03T06:03:31.061Z,23.17
2017-06-03T06:05:57.242Z,23.83
2017-06-03T06:08:23.429Z,23.20
2017-06-03T06:10:49.649Z,23.23
2017-06-03T06:13:15.912Z,22.83
2017-06-03T06:21:35.395Z,26.13
2017-06-03T06:24:01.633Z,26.93
2017-06-03T06:26:27.933Z,29.70
2017-06-03T06:28:54.125Z,29.97
2017-06-03T06:40:39.292Z,26.37
2017-06-03T06:43:05.456Z,28.37
2017-06-03T06:45:37.740Z,29.73
2017-06-03T06:48:03.938Z,29.27
2017-06-03T06:50:30.170Z,27.67
2017-06-03T06:52:56.409Z,28.97
2017-06-03T06:55:22.730Z,29.40
2017-06-03T06:57:48.898Z,32.57
2017-06-03T07:00:15.085Z,29.20
2017-06-03T07:02:41.338Z,35.90
2017-06-03T07:05:07.572Z,32.77
2017-06-03T07:07:34.738Z,34.57
2017-06-03T07:10:01.361Z,34.87
2017-06-03T07:12:29.522Z,33.97
2017-06-03T07:20:48.667Z,36.57
2017-06-03T07:23:15.225Z,37.53
2017-06-03T07:25:41.399Z,25.97
2017-06-03T07:28:08.331Z,29.33
2017-06-03T07:30:40.446Z,24.47
2017-06-03T07:33:06.608Z,21.60
2017-06-03T07:35:32.853Z,19.17
2017-06-03T07:37:59.127Z,18.20
2017-06-03T07:40:25.330Z,18.00
2017-06-03T07:42:51.611Z,15.80
2017-06-03T08:00:00.246Z,14.93
2017-06-03T08:02:26.401Z,12.03
2017-06-03T08:04:52.639Z,10.53
2017-06-03T08:07:19.748Z,12.27
2017-06-03T08:09:45.987Z,12.50
2017-06-03T08:12:12.313Z,12.10
2017-06-03T08:14:38.469Z,9.27
2017-06-03T08:20:01.154Z,9.40
2017-06-03T08:22:27.358Z,8.20
2017-06-03T08:24:53.533Z,7.37
2017-06-03T08:27:19.753Z,9.77
2017-06-03T08:29:46.122Z,11.30
2017-06-03T08:41:01.985Z,9.40
2017-06-03T08:43:28.180Z,8.70
2017-06-03T09:00:36.923Z,8.00
2017-06-03T09:03:03.100Z,6.57
2017-06-03T09:05:29.368Z,6.43
2017-06-03T09:07:55.593Z,6.83
2017-06-03T09:10:21.840Z,6.73
2017-06-03T09:12:47.993Z,7.70
2017-06-03T09:21:07.241Z,7.80
2017-06-03T09:23:33.452Z,6.17
2017-06-03T09:25:59.748Z,6.50
2017-06-03T09:28:25.909Z,8.93
2017-06-03T09:42:40.878Z,20.90
2017-06-03T09:45:07.034Z,29.30
2017-06-03T09:47:39.030Z,24.87
2017-06-03T09:50:05.255Z,23.13
2017-06-03T09:52:31.465Z,23.23
2017-06-03T09:54:57.680Z,26.73
2017-06-03T09:57:23.886Z,23.93
2017-06-03T09:59:50.057Z,32.33
2017-06-03T10:19:55.321Z,24.83
2017-06-03T10:22:21.538Z,25.87
2017-06-03T10:24:47.694Z,27.60
2017-06-03T10:27:13.903Z,24.23
2017-06-03T10:29:40.101Z,32.87
2017-06-03T10:40:57.718Z,25.63
2017-06-03T10:43:23.930Z,24.50
2017-06-03T10:57:42.858Z,14.90
2017-06-03T11:00:09.257Z,12.63
2017-06-03T11:02:41.462Z,13.97
2017-06-03T11:05:07.721Z,15.13
2017-06-03T11:07:33.893Z,14.23
2017-06-03T11:10:00.072Z,11.87
2017-06-03T11:12:26.375Z,14.20
2017-06-03T11:14:52.565Z,13.27
2017-06-03T11:20:15.402Z,14.70
2017-06-03T11:22:41.701Z,13.97
2017-06-03T12:21:12.491Z,27.73
2017-06-03T12:23:38.843Z,27.70
2017-06-03T12:26:05.031Z,31.23
2017-06-03T12:28:31.286Z,28.87
2017-06-03T12:30:57.469Z,31.73
2017-06-03T12:33:23.758Z,30.90
2017-06-03T12:35:50.014Z,28.03
2017-06-03T12:38:17.043Z,26.17
2017-06-03T12:40:43.438Z,25.20
2017-06-03T12:43:10.007Z,28.30
2017-06-03T12:45:36.265Z,32.37
2017-06-03T12:48:02.509Z,29.03
2017-06-03T13:05:11.116Z,22.53
2017-06-03T13:07:37.330Z,27.77
2017-06-03T13:10:04.302Z,28.10
2017-06-03T13:12:30.463Z,26.40
2017-06-03T13:14:56.642Z,30.77
2017-06-03T13:17:29.001Z,29.27
2017-06-03T13:26:07.090Z,28.80
2017-06-03T13:28:33.410Z,19.57
2017-06-03T13:30:59.709Z,24.40
2017-06-03T13:33:25.933Z,18.80
2017-06-03T13:45:06.482Z,16.27
2017-06-03T13:47:32.715Z,17.50
2017-06-03T14:04:41.410Z,16.50
2017-06-03T14:07:07.578Z,18.73
2017-06-03T14:09:33.810Z,20.00
2017-06-03T14:12:00.026Z,20.00
2017-06-03T14:14:26.195Z,12.20
2017-06-03T14:16:52.462Z,13.27
2017-06-03T14:25:11.709Z,9.90
2017-06-03T14:27:38.014Z,14.77
2017-06-03T14:30:04.177Z,17.20
2017-06-03T14:32:30.360Z,19.93
2017-06-03T14:44:09.460Z,11.20
2017-06-03T14:46:35.805Z,13.73
2017-06-03T14:49:01.989Z,10.53
2017-06-03T15:03:14.294Z,14.53
2017-06-03T15:23:19.543Z,7.00
2017-06-03T15:25:45.783Z,13.40
2017-06-03T15:28:12.042Z,10.10
2017-06-03T15:30:38.222Z,7.20
2017-06-03T15:33:04.447Z,14.13
2017-06-03T15:44:21.667Z,7.17
2017-06-03T15:46:47.888Z,6.87
2017-06-03T15:49:14.143Z,15.60
2017-06-03T16:03:27.905Z,8.90
2017-06-03T16:23:35.627Z,4.63
2017-06-03T16:26:01.948Z,3.53
2017-06-03T16:28:28.153Z,5.40
2017-06-03T16:30:54.314Z,3.93
2017-06-03T16:33:20.481Z,3.43
2017-06-03T16:44:39.762Z,4.40
2017-06-03T16:47:05.978Z,3.53
2017-06-03T16:49:32.180Z,4.00
2017-06-03T17:03:44.914Z,3.30
2017-06-03T17:09:13.442Z,3.30
2017-06-03T17:11:39.646Z,2.93
2017-06-03T17:14:05.883Z,2.23
2017-06-03T17:16:32.645Z,2.73
2017-06-03T17:18:58.842Z,2.40
2017-06-03T17:24:22.855Z,2.50
2017-06-03T17:26:50.006Z,2.63
2017-06-03T17:29:16.205Z,2.30
2017-06-03T17:31:42.402Z,2.50
2017-06-03T17:34:08.683Z,2.80
2017-06-03T17:45:25.815Z,3.60
2017-06-03T17:47:52.067Z,2.87
2017-06-03T17:50:18.321Z,3.03
2017-06-03T18:04:30.680Z,4.83
2017-06-03T18:24:39.757Z,5.83
2017-06-03T18:27:06.002Z,2.60
2017-06-03T18:29:32.293Z,2.50
2017-06-03T18:31:58.481Z,3.10
2017-06-03T18:34:24.698Z,3.70
2017-06-03T18:45:41.938Z,2.87
2017-06-03T18:48:08.133Z,2.27
2017-06-03T18:50:34.354Z,2.60
2017-06-03T19:04:46.860Z,2.17
2017-06-03T19:10:15.478Z,3.17
2017-06-03T19:12:41.641Z,1.97
2017-06-03T19:15:07.837Z,2.00
2017-06-03T19:17:34.077Z,2.43
2017-06-03T19:20:00.286Z,2.87
2017-06-03T19:25:22.882Z,2.63
2017-06-03T19:27:49.044Z,2.30
2017-06-03T19:30:15.242Z,2.47
2017-06-03T19:32:41.453Z,2.77
2017-06-03T19:35:07.616Z,1.90
2017-06-03T19:46:23.218Z,2.67
2017-06-03T19:48:49.497Z,2.20
2017-06-03T19:57:14.883Z,2.30
2017-06-03T19:59:41.024Z,4.50
2017-06-03T20:02:07.258Z,2.50
2017-06-03T20:04:33.493Z,2.10
2017-06-03T20:06:59.652Z,2.40
2017-06-03T20:09:25.927Z,2.50
2017-06-03T20:11:52.094Z,2.77
2017-06-03T20:14:19.004Z,3.43
2017-06-03T20:16:45.268Z,2.47
2017-06-03T20:19:11.508Z,2.30
2017-06-03T20:27:30.727Z,2.50
2017-06-03T20:29:56.880Z,2.20
2017-06-03T20:32:23.734Z,2.87
2017-06-03T20:34:49.965Z,2.57
2017-06-03T20:43:15.361Z,4.00
2017-06-03T20:45:41.833Z,2.80
2017-06-03T20:48:08.062Z,2.90
2017-06-03T20:50:34.234Z,2.83
2017-06-03T21:07:42.829Z,4.17
2017-06-03T21:10:09.047Z,2.27
2017-06-03T21:12:35.197Z,2.10
2017-06-03T21:15:01.413Z,2.37
2017-06-03T21:17:27.606Z,2.77
2017-06-03T21:19:53.856Z,2.30
2017-06-03T21:28:12.957Z,2.53
2017-06-03T21:30:39.198Z,2.70
2017-06-03T21:33:05.391Z,2.53
2017-06-03T21:35:31.573Z,3.77
2017-06-03T21:47:12.968Z,2.17
2017-06-03T21:49:39.193Z,2.80
2017-06-03T22:06:47.630Z,2.70
2017-06-03T22:09:13.874Z,2.20
2017-06-03T22:11:40.082Z,2.10
2017-06-03T22:14:06.240Z,2.60
2017-06-03T22:16:32.463Z,2.00
2017-06-03T22:18:58.752Z,1.83
2017-06-03T22:21:24.915Z,2.27
2017-06-03T22:26:47.730Z,2.37
2017-06-03T22:29:13.905Z,2.13
2017-06-03T22:31:40.110Z,2.00
2017-06-03T22:34:06.278Z,2.13
2017-06-03T22:36:32.515Z,1.73
2017-06-03T22:47:48.357Z,2.53
2017-06-03T22:50:14.669Z,2.20
2017-06-03T23:07:25.236Z,2.37
2017-06-03T23:09:51.398Z,2.43
2017-06-03T23:12:17.605Z,2.10
2017-06-03T23:14:43.807Z,1.90
2017-06-03T23:17:10.147Z,2.17
2017-06-03T23:19:36.383Z,2.00
2017-06-03T23:27:57.267Z,2.30
2017-06-03T23:30:23.476Z,2.50
2017-06-03T23:32:49.705Z,2.23
2017-06-03T23:35:15.867Z,2.00
2017-06-03T23:46:57.964Z,2.23
2017-06-03T23:49:24.338Z,2.07
2017-06-03T23:51:50.547Z,1.80
2017-06-03T23:57:19.133Z,2.23
2017-06-03T23:59:45.369Z,1.90
